sensor_id;sensor_type;location;lat;lon;timestamp;P1;durP1;ratioP1;P2;durP2;ratioP2
70800;SDS011;59616;52.170;5.386;2022-07-23T00:00:16;6.15;;;2.53;;
70800;SDS011;59616;52.170;5.386;2022-07-23T00:02:43;9.52;;;3.58;;
70800;SDS011;59616;52.170;5.386;2022-07-23T00:05:11;7.32;;;2.97;;
70800;SDS011;59616;52.170;5.386;2022-07-23T00:07:38;8.32;;;3.08;;
70800;SDS011;59616;52.170;5.386;2022-07-23T00:10:05;6.03;;;2.47;;
70800;SDS011;59616;52.170;5.386;2022-07-23T00:12:32;7.35;;;2.75;;
70800;SDS011;59616;52.170;5.386;2022-07-23T00:14:59;8.23;;;2.78;;
70800;SDS011;59616;52.170;5.386;2022-07-23T00:17:26;7.30;;;2.90;;
70800;SDS011;59616;52.170;5.386;2022-07-23T00:19:52;9.90;;;3.05;;
70800;SDS011;59616;52.170;5.386;2022-07-23T00:22:20;7.60;;;2.72;;
70800;SDS011;59616;52.170;5.386;2022-07-23T00:24:46;8.82;;;3.17;;
70800;SDS011;59616;52.170;5.386;2022-07-23T00:27:33;8.95;;;3.00;;
70800;SDS011;59616;52.170;5.386;2022-07-23T00:30:00;7.75;;;3.15;;
70800;SDS011;59616;52.170;5.386;2022-07-23T00:32:27;9.38;;;3.30;;
70800;SDS011;59616;52.170;5.386;2022-07-23T00:35:13;8.90;;;2.95;;
70800;SDS011;59616;52.170;5.386;2022-07-23T00:37:40;8.02;;;3.00;;
70800;SDS011;59616;52.170;5.386;2022-07-23T00:40:08;9.35;;;3.20;;
70800;SDS011;59616;52.170;5.386;2022-07-23T00:42:35;9.10;;;3.10;;
70800;SDS011;59616;52.170;5.386;2022-07-23T00:45:03;9.45;;;3.25;;
70800;SDS011;59616;52.170;5.386;2022-07-23T00:47:30;7.15;;;2.95;;
70800;SDS011;59616;52.170;5.386;2022-07-23T00:49:57;6.88;;;2.67;;
70800;SDS011;59616;52.170;5.386;2022-07-23T00:52:24;7.75;;;3.03;;
70800;SDS011;59616;52.170;5.386;2022-07-23T00:54:51;8.48;;;3.03;;
70800;SDS011;59616;52.170;5.386;2022-07-23T00:57:18;8.50;;;2.90;;
70800;SDS011;59616;52.170;5.386;2022-07-23T00:59:48;7.10;;;2.67;;
70800;SDS011;59616;52.170;5.386;2022-07-23T01:02:15;9.05;;;3.17;;
70800;SDS011;59616;52.170;5.386;2022-07-23T01:04:41;7.72;;;2.85;;
70800;SDS011;59616;52.170;5.386;2022-07-23T01:07:08;6.13;;;2.50;;
70800;SDS011;59616;52.170;5.386;2022-07-23T01:09:36;6.85;;;3.10;;
70800;SDS011;59616;52.170;5.386;2022-07-23T01:12:03;9.35;;;2.90;;
70800;SDS011;59616;52.170;5.386;2022-07-23T01:14:31;7.15;;;2.90;;
70800;SDS011;59616;52.170;5.386;2022-07-23T01:16:58;7.40;;;2.95;;
70800;SDS011;59616;52.170;5.386;2022-07-23T01:19:25;6.95;;;2.60;;
70800;SDS011;59616;52.170;5.386;2022-07-23T01:21:51;7.97;;;3.15;;
70800;SDS011;59616;52.170;5.386;2022-07-23T01:24:20;8.25;;;3.08;;
70800;SDS011;59616;52.170;5.386;2022-07-23T01:27:00;7.80;;;2.75;;
70800;SDS011;59616;52.170;5.386;2022-07-23T01:29:27;9.75;;;3.15;;
70800;SDS011;59616;52.170;5.386;2022-07-23T01:31:56;10.88;;;3.72;;
70800;SDS011;59616;52.170;5.386;2022-07-23T01:34:22;9.82;;;3.20;;
70800;SDS011;59616;52.170;5.386;2022-07-23T01:36:49;7.65;;;3.50;;
70800;SDS011;59616;52.170;5.386;2022-07-23T01:39:17;9.02;;;2.70;;
70800;SDS011;59616;52.170;5.386;2022-07-23T01:41:44;7.40;;;2.83;;
70800;SDS011;59616;52.170;5.386;2022-07-23T01:44:17;7.35;;;2.80;;
70800;SDS011;59616;52.170;5.386;2022-07-23T01:46:44;7.63;;;2.88;;
70800;SDS011;59616;52.170;5.386;2022-07-23T01:49:11;7.25;;;2.65;;
70800;SDS011;59616;52.170;5.386;2022-07-23T01:51:57;10.80;;;3.10;;
70800;SDS011;59616;52.170;5.386;2022-07-23T01:54:41;9.07;;;3.35;;
70800;SDS011;59616;52.170;5.386;2022-07-23T01:57:09;10.38;;;3.28;;
70800;SDS011;59616;52.170;5.386;2022-07-23T01:59:36;7.82;;;2.88;;
70800;SDS011;59616;52.170;5.386;2022-07-23T02:02:06;7.95;;;3.30;;
70800;SDS011;59616;52.170;5.386;2022-07-23T02:04:33;8.07;;;3.03;;
70800;SDS011;59616;52.170;5.386;2022-07-23T02:07:02;7.55;;;3.10;;
70800;SDS011;59616;52.170;5.386;2022-07-23T02:09:30;9.25;;;2.88;;
70800;SDS011;59616;52.170;5.386;2022-07-23T02:11:57;8.05;;;3.58;;
70800;SDS011;59616;52.170;5.386;2022-07-23T02:14:24;8.07;;;3.08;;
70800;SDS011;59616;52.170;5.386;2022-07-23T02:16:52;8.02;;;2.97;;
70800;SDS011;59616;52.170;5.386;2022-07-23T02:19:19;8.63;;;3.45;;
70800;SDS011;59616;52.170;5.386;2022-07-23T02:21:46;9.50;;;3.15;;
70800;SDS011;59616;52.170;5.386;2022-07-23T02:24:12;8.68;;;3.65;;
70800;SDS011;59616;52.170;5.386;2022-07-23T02:26:40;8.68;;;3.75;;
70800;SDS011;59616;52.170;5.386;2022-07-23T02:29:08;8.63;;;3.53;;
70800;SDS011;59616;52.170;5.386;2022-07-23T02:31:35;8.45;;;3.47;;
70800;SDS011;59616;52.170;5.386;2022-07-23T02:34:02;8.75;;;3.80;;
70800;SDS011;59616;52.170;5.386;2022-07-23T02:36:29;8.25;;;3.92;;
70800;SDS011;59616;52.170;5.386;2022-07-23T02:38:56;11.00;;;4.53;;
70800;SDS011;59616;52.170;5.386;2022-07-23T02:41:26;10.07;;;4.30;;
70800;SDS011;59616;52.170;5.386;2022-07-23T02:43:52;9.73;;;4.10;;
70800;SDS011;59616;52.170;5.386;2022-07-23T02:46:20;10.43;;;4.43;;
70800;SDS011;59616;52.170;5.386;2022-07-23T02:48:48;8.93;;;4.00;;
70800;SDS011;59616;52.170;5.386;2022-07-23T02:51:15;8.48;;;3.60;;
70800;SDS011;59616;52.170;5.386;2022-07-23T02:53:49;11.10;;;4.03;;
70800;SDS011;59616;52.170;5.386;2022-07-23T02:56:16;9.15;;;3.67;;
70800;SDS011;59616;52.170;5.386;2022-07-23T02:58:42;9.25;;;3.95;;
70800;SDS011;59616;52.170;5.386;2022-07-23T03:01:09;11.18;;;3.97;;
70800;SDS011;59616;52.170;5.386;2022-07-23T03:03:36;11.55;;;4.00;;
70800;SDS011;59616;52.170;5.386;2022-07-23T03:06:03;9.82;;;4.15;;
70800;SDS011;59616;52.170;5.386;2022-07-23T03:08:30;9.63;;;4.13;;
70800;SDS011;59616;52.170;5.386;2022-07-23T03:10:57;11.23;;;4.35;;
70800;SDS011;59616;52.170;5.386;2022-07-23T03:13:24;11.27;;;4.35;;
70800;SDS011;59616;52.170;5.386;2022-07-23T03:15:52;12.52;;;4.97;;
70800;SDS011;59616;52.170;5.386;2022-07-23T03:18:18;12.20;;;5.28;;
70800;SDS011;59616;52.170;5.386;2022-07-23T03:20:45;11.90;;;4.72;;
70800;SDS011;59616;52.170;5.386;2022-07-23T03:23:12;13.85;;;5.18;;
70800;SDS011;59616;52.170;5.386;2022-07-23T03:25:39;12.63;;;4.68;;
70800;SDS011;59616;52.170;5.386;2022-07-23T03:28:06;12.55;;;5.28;;
70800;SDS011;59616;52.170;5.386;2022-07-23T03:30:33;13.38;;;5.05;;
70800;SDS011;59616;52.170;5.386;2022-07-23T03:33:00;10.48;;;4.50;;
70800;SDS011;59616;52.170;5.386;2022-07-23T03:35:26;12.70;;;4.60;;
70800;SDS011;59616;52.170;5.386;2022-07-23T03:38:09;11.57;;;4.80;;
70800;SDS011;59616;52.170;5.386;2022-07-23T03:40:36;11.20;;;4.13;;
70800;SDS011;59616;52.170;5.386;2022-07-23T03:43:03;12.65;;;4.65;;
70800;SDS011;59616;52.170;5.386;2022-07-23T03:45:30;11.95;;;4.70;;
70800;SDS011;59616;52.170;5.386;2022-07-23T03:48:00;11.77;;;4.18;;
70800;SDS011;59616;52.170;5.386;2022-07-23T03:50:27;11.25;;;4.20;;
70800;SDS011;59616;52.170;5.386;2022-07-23T03:52:55;11.68;;;4.20;;
70800;SDS011;59616;52.170;5.386;2022-07-23T03:55:21;9.40;;;3.70;;
70800;SDS011;59616;52.170;5.386;2022-07-23T03:57:48;11.77;;;4.70;;
70800;SDS011;59616;52.170;5.386;2022-07-23T04:00:15;11.80;;;4.38;;
70800;SDS011;59616;52.170;5.386;2022-07-23T04:02:44;11.13;;;4.22;;
70800;SDS011;59616;52.170;5.386;2022-07-23T04:05:11;9.80;;;4.00;;
70800;SDS011;59616;52.170;5.386;2022-07-23T04:07:40;11.93;;;4.20;;
70800;SDS011;59616;52.170;5.386;2022-07-23T04:10:07;10.63;;;4.10;;
70800;SDS011;59616;52.170;5.386;2022-07-23T04:12:34;11.45;;;4.40;;
70800;SDS011;59616;52.170;5.386;2022-07-23T04:15:02;11.43;;;4.38;;
70800;SDS011;59616;52.170;5.386;2022-07-23T04:17:31;11.00;;;4.07;;
70800;SDS011;59616;52.170;5.386;2022-07-23T04:19:57;10.10;;;4.15;;
70800;SDS011;59616;52.170;5.386;2022-07-23T04:22:29;11.48;;;4.20;;
70800;SDS011;59616;52.170;5.386;2022-07-23T04:24:56;12.25;;;4.10;;
70800;SDS011;59616;52.170;5.386;2022-07-23T04:27:23;10.38;;;3.95;;
70800;SDS011;59616;52.170;5.386;2022-07-23T04:29:50;11.82;;;4.07;;
70800;SDS011;59616;52.170;5.386;2022-07-23T04:32:17;10.02;;;4.05;;
70800;SDS011;59616;52.170;5.386;2022-07-23T04:34:44;9.82;;;4.35;;
70800;SDS011;59616;52.170;5.386;2022-07-23T04:37:11;11.88;;;4.47;;
70800;SDS011;59616;52.170;5.386;2022-07-23T04:39:38;12.95;;;4.47;;
70800;SDS011;59616;52.170;5.386;2022-07-23T04:42:05;13.13;;;4.93;;
70800;SDS011;59616;52.170;5.386;2022-07-23T04:44:32;10.15;;;4.13;;
70800;SDS011;59616;52.170;5.386;2022-07-23T04:47:01;10.52;;;4.00;;
70800;SDS011;59616;52.170;5.386;2022-07-23T04:49:28;10.32;;;4.07;;
70800;SDS011;59616;52.170;5.386;2022-07-23T04:51:55;9.77;;;3.97;;
70800;SDS011;59616;52.170;5.386;2022-07-23T04:54:21;12.43;;;4.38;;
70800;SDS011;59616;52.170;5.386;2022-07-23T04:56:48;10.70;;;4.40;;
70800;SDS011;59616;52.170;5.386;2022-07-23T04:59:16;11.35;;;4.43;;
70800;SDS011;59616;52.170;5.386;2022-07-23T05:01:44;11.73;;;4.25;;
70800;SDS011;59616;52.170;5.386;2022-07-23T05:04:10;11.50;;;4.10;;
70800;SDS011;59616;52.170;5.386;2022-07-23T05:06:38;10.75;;;4.45;;
70800;SDS011;59616;52.170;5.386;2022-07-23T05:09:05;11.10;;;4.72;;
70800;SDS011;59616;52.170;5.386;2022-07-23T05:11:32;10.15;;;3.60;;
70800;SDS011;59616;52.170;5.386;2022-07-23T05:13:59;10.70;;;4.28;;
70800;SDS011;59616;52.170;5.386;2022-07-23T05:16:26;10.27;;;3.85;;
70800;SDS011;59616;52.170;5.386;2022-07-23T05:18:58;10.25;;;3.97;;
70800;SDS011;59616;52.170;5.386;2022-07-23T05:21:25;10.07;;;3.75;;
70800;SDS011;59616;52.170;5.386;2022-07-23T05:23:52;14.50;;;3.97;;
70800;SDS011;59616;52.170;5.386;2022-07-23T05:26:19;11.73;;;3.83;;
70800;SDS011;59616;52.170;5.386;2022-07-23T05:28:48;11.43;;;3.88;;
70800;SDS011;59616;52.170;5.386;2022-07-23T05:31:17;13.98;;;3.85;;
70800;SDS011;59616;52.170;5.386;2022-07-23T05:33:45;11.32;;;3.85;;
70800;SDS011;59616;52.170;5.386;2022-07-23T05:36:12;10.05;;;3.75;;
70800;SDS011;59616;52.170;5.386;2022-07-23T05:38:47;10.52;;;3.58;;
70800;SDS011;59616;52.170;5.386;2022-07-23T05:41:14;10.93;;;3.60;;
70800;SDS011;59616;52.170;5.386;2022-07-23T05:43:41;10.20;;;3.72;;
70800;SDS011;59616;52.170;5.386;2022-07-23T05:46:10;8.50;;;3.55;;
70800;SDS011;59616;52.170;5.386;2022-07-23T05:48:39;9.90;;;3.50;;
70800;SDS011;59616;52.170;5.386;2022-07-23T05:51:30;12.30;;;3.80;;
70800;SDS011;59616;52.170;5.386;2022-07-23T05:53:57;10.95;;;3.60;;
70800;SDS011;59616;52.170;5.386;2022-07-23T05:56:29;9.40;;;3.53;;
70800;SDS011;59616;52.170;5.386;2022-07-23T05:58:56;11.68;;;3.60;;
70800;SDS011;59616;52.170;5.386;2022-07-23T06:01:23;6.88;;;2.78;;
70800;SDS011;59616;52.170;5.386;2022-07-23T06:03:59;7.85;;;3.08;;
70800;SDS011;59616;52.170;5.386;2022-07-23T06:06:32;10.82;;;3.00;;
70800;SDS011;59616;52.170;5.386;2022-07-23T06:09:00;11.02;;;3.30;;
70800;SDS011;59616;52.170;5.386;2022-07-23T06:11:27;7.10;;;2.63;;
70800;SDS011;59616;52.170;5.386;2022-07-23T06:13:54;10.07;;;3.08;;
70800;SDS011;59616;52.170;5.386;2022-07-23T06:18:54;8.20;;;3.15;;
70800;SDS011;59616;52.170;5.386;2022-07-23T06:21:21;10.13;;;2.90;;
70800;SDS011;59616;52.170;5.386;2022-07-23T06:24:07;8.32;;;2.47;;
70800;SDS011;59616;52.170;5.386;2022-07-23T06:26:34;8.80;;;2.15;;
70800;SDS011;59616;52.170;5.386;2022-07-23T06:29:01;6.65;;;2.35;;
70800;SDS011;59616;52.170;5.386;2022-07-23T06:31:28;7.20;;;2.53;;
70800;SDS011;59616;52.170;5.386;2022-07-23T06:33:56;6.55;;;2.30;;
70800;SDS011;59616;52.170;5.386;2022-07-23T06:36:23;6.82;;;2.00;;
70800;SDS011;59616;52.170;5.386;2022-07-23T06:38:50;5.32;;;1.80;;
70800;SDS011;59616;52.170;5.386;2022-07-23T06:41:17;8.90;;;2.13;;
70800;SDS011;59616;52.170;5.386;2022-07-23T06:43:44;6.00;;;2.15;;
70800;SDS011;59616;52.170;5.386;2022-07-23T06:46:14;8.85;;;2.92;;
70800;SDS011;59616;52.170;5.386;2022-07-23T06:48:41;8.70;;;2.75;;
70800;SDS011;59616;52.170;5.386;2022-07-23T06:51:08;5.47;;;1.83;;
70800;SDS011;59616;52.170;5.386;2022-07-23T06:53:34;4.65;;;1.83;;
70800;SDS011;59616;52.170;5.386;2022-07-23T06:56:01;8.30;;;2.63;;
70800;SDS011;59616;52.170;5.386;2022-07-23T06:58:28;5.97;;;2.42;;
70800;SDS011;59616;52.170;5.386;2022-07-23T07:00:54;7.07;;;2.10;;
70800;SDS011;59616;52.170;5.386;2022-07-23T07:03:23;4.28;;;1.67;;
70800;SDS011;59616;52.170;5.386;2022-07-23T07:05:50;7.03;;;1.60;;
70800;SDS011;59616;52.170;5.386;2022-07-23T07:08:16;4.32;;;1.70;;
70800;SDS011;59616;52.170;5.386;2022-07-23T07:10:43;3.45;;;1.60;;
70800;SDS011;59616;52.170;5.386;2022-07-23T07:13:10;5.30;;;1.50;;
70800;SDS011;59616;52.170;5.386;2022-07-23T07:15:37;4.95;;;1.70;;
70800;SDS011;59616;52.170;5.386;2022-07-23T07:18:04;7.40;;;2.10;;
70800;SDS011;59616;52.170;5.386;2022-07-23T07:20:30;4.78;;;1.60;;
70800;SDS011;59616;52.170;5.386;2022-07-23T07:22:57;6.13;;;1.50;;
70800;SDS011;59616;52.170;5.386;2022-07-23T07:25:24;4.75;;;1.67;;
70800;SDS011;59616;52.170;5.386;2022-07-23T07:27:51;4.20;;;1.67;;
70800;SDS011;59616;52.170;5.386;2022-07-23T07:30:18;6.05;;;1.77;;
70800;SDS011;59616;52.170;5.386;2022-07-23T07:32:44;7.97;;;1.90;;
70800;SDS011;59616;52.170;5.386;2022-07-23T07:35:27;6.80;;;2.10;;
70800;SDS011;59616;52.170;5.386;2022-07-23T07:37:53;6.00;;;2.00;;
70800;SDS011;59616;52.170;5.386;2022-07-23T07:40:20;6.78;;;2.30;;
70800;SDS011;59616;52.170;5.386;2022-07-23T07:42:48;7.22;;;2.47;;
70800;SDS011;59616;52.170;5.386;2022-07-23T07:45:17;5.22;;;2.03;;
70800;SDS011;59616;52.170;5.386;2022-07-23T07:47:45;6.50;;;1.90;;
70800;SDS011;59616;52.170;5.386;2022-07-23T07:50:13;5.30;;;1.92;;
70800;SDS011;59616;52.170;5.386;2022-07-23T07:52:39;5.13;;;1.80;;
70800;SDS011;59616;52.170;5.386;2022-07-23T07:55:07;5.93;;;1.80;;
70800;SDS011;59616;52.170;5.386;2022-07-23T07:57:36;5.70;;;1.90;;
70800;SDS011;59616;52.170;5.386;2022-07-23T08:00:04;5.50;;;1.90;;
70800;SDS011;59616;52.170;5.386;2022-07-23T08:02:40;5.60;;;1.90;;
70800;SDS011;59616;52.170;5.386;2022-07-23T08:05:18;5.05;;;1.90;;
70800;SDS011;59616;52.170;5.386;2022-07-23T08:07:53;5.93;;;2.22;;
70800;SDS011;59616;52.170;5.386;2022-07-23T08:10:24;4.43;;;1.80;;
70800;SDS011;59616;52.170;5.386;2022-07-23T08:12:53;5.53;;;1.77;;
70800;SDS011;59616;52.170;5.386;2022-07-23T08:15:22;6.80;;;1.90;;
70800;SDS011;59616;52.170;5.386;2022-07-23T08:17:50;5.55;;;1.67;;
70800;SDS011;59616;52.170;5.386;2022-07-23T08:20:18;4.22;;;1.60;;
70800;SDS011;59616;52.170;5.386;2022-07-23T08:22:53;7.22;;;1.90;;
70800;SDS011;59616;52.170;5.386;2022-07-23T08:25:28;8.07;;;1.63;;
70800;SDS011;59616;52.170;5.386;2022-07-23T08:27:57;3.28;;;1.23;;
70800;SDS011;59616;52.170;5.386;2022-07-23T08:30:24;3.63;;;1.70;;
70800;SDS011;59616;52.170;5.386;2022-07-23T08:35:30;4.97;;;1.75;;
70800;SDS011;59616;52.170;5.386;2022-07-23T08:37:59;4.15;;;1.48;;
70800;SDS011;59616;52.170;5.386;2022-07-23T08:40:28;3.17;;;1.50;;
70800;SDS011;59616;52.170;5.386;2022-07-23T08:42:59;5.20;;;1.70;;
70800;SDS011;59616;52.170;5.386;2022-07-23T08:45:29;5.05;;;1.60;;
70800;SDS011;59616;52.170;5.386;2022-07-23T08:47:57;3.80;;;1.42;;
70800;SDS011;59616;52.170;5.386;2022-07-23T08:50:28;3.53;;;1.50;;
70800;SDS011;59616;52.170;5.386;2022-07-23T08:52:55;2.72;;;1.33;;
70800;SDS011;59616;52.170;5.386;2022-07-23T08:55:24;3.30;;;1.30;;
70800;SDS011;59616;52.170;5.386;2022-07-23T08:57:51;4.40;;;1.30;;
70800;SDS011;59616;52.170;5.386;2022-07-23T09:00:19;3.72;;;1.23;;
70800;SDS011;59616;52.170;5.386;2022-07-23T09:02:47;4.97;;;1.70;;
70800;SDS011;59616;52.170;5.386;2022-07-23T09:05:15;3.83;;;1.58;;
70800;SDS011;59616;52.170;5.386;2022-07-23T09:10:45;4.60;;;1.30;;
70800;SDS011;59616;52.170;5.386;2022-07-23T09:15:52;5.90;;;1.67;;
70800;SDS011;59616;52.170;5.386;2022-07-23T09:18:30;4.95;;;1.70;;
70800;SDS011;59616;52.170;5.386;2022-07-23T09:23:54;3.00;;;1.27;;
70800;SDS011;59616;52.170;5.386;2022-07-23T09:28:50;3.13;;;1.27;;
70800;SDS011;59616;52.170;5.386;2022-07-23T09:31:18;2.92;;;1.35;;
70800;SDS011;59616;52.170;5.386;2022-07-23T09:33:46;4.47;;;1.50;;
70800;SDS011;59616;52.170;5.386;2022-07-23T09:36:12;3.40;;;1.20;;
70800;SDS011;59616;52.170;5.386;2022-07-23T09:38:49;5.40;;;1.50;;
70800;SDS011;59616;52.170;5.386;2022-07-23T09:41:16;6.82;;;1.52;;
70800;SDS011;59616;52.170;5.386;2022-07-23T09:43:43;6.38;;;1.85;;
70800;SDS011;59616;52.170;5.386;2022-07-23T09:46:17;2.95;;;1.33;;
70800;SDS011;59616;52.170;5.386;2022-07-23T09:48:45;2.95;;;1.50;;
70800;SDS011;59616;52.170;5.386;2022-07-23T09:51:18;4.97;;;1.52;;
70800;SDS011;59616;52.170;5.386;2022-07-23T09:53:59;4.05;;;1.27;;
70800;SDS011;59616;52.170;5.386;2022-07-23T09:56:27;2.85;;;1.40;;
70800;SDS011;59616;52.170;5.386;2022-07-23T09:58:54;2.78;;;1.30;;
70800;SDS011;59616;52.170;5.386;2022-07-23T10:01:36;3.75;;;1.55;;
70800;SDS011;59616;52.170;5.386;2022-07-23T10:04:02;4.40;;;1.33;;
70800;SDS011;59616;52.170;5.386;2022-07-23T10:06:54;4.18;;;1.50;;
70800;SDS011;59616;52.170;5.386;2022-07-23T10:09:41;3.75;;;1.38;;
70800;SDS011;59616;52.170;5.386;2022-07-23T10:12:28;4.53;;;1.63;;
70800;SDS011;59616;52.170;5.386;2022-07-23T10:15:14;3.22;;;1.50;;
70800;SDS011;59616;52.170;5.386;2022-07-23T10:17:41;4.53;;;1.60;;
70800;SDS011;59616;52.170;5.386;2022-07-23T10:20:07;4.53;;;1.50;;
70800;SDS011;59616;52.170;5.386;2022-07-23T10:22:35;5.07;;;1.40;;
70800;SDS011;59616;52.170;5.386;2022-07-23T10:25:18;3.17;;;1.35;;
70800;SDS011;59616;52.170;5.386;2022-07-23T10:28:22;3.35;;;1.42;;
70800;SDS011;59616;52.170;5.386;2022-07-23T10:34:02;3.38;;;1.50;;
70800;SDS011;59616;52.170;5.386;2022-07-23T10:36:40;4.03;;;1.50;;
70800;SDS011;59616;52.170;5.386;2022-07-23T10:39:31;4.85;;;1.48;;
70800;SDS011;59616;52.170;5.386;2022-07-23T10:42:12;3.47;;;1.60;;
70800;SDS011;59616;52.170;5.386;2022-07-23T10:44:41;3.67;;;1.35;;
70800;SDS011;59616;52.170;5.386;2022-07-23T10:47:12;5.28;;;1.42;;
70800;SDS011;59616;52.170;5.386;2022-07-23T10:58:01;5.28;;;1.85;;
70800;SDS011;59616;52.170;5.386;2022-07-23T11:00:33;2.60;;;1.50;;
70800;SDS011;59616;52.170;5.386;2022-07-23T11:03:02;5.18;;;1.55;;
70800;SDS011;59616;52.170;5.386;2022-07-23T11:05:41;4.82;;;1.35;;
70800;SDS011;59616;52.170;5.386;2022-07-23T11:08:10;4.78;;;1.77;;
70800;SDS011;59616;52.170;5.386;2022-07-23T11:10:49;4.60;;;1.50;;
70800;SDS011;59616;52.170;5.386;2022-07-23T11:32:01;4.32;;;1.60;;
70800;SDS011;59616;52.170;5.386;2022-07-23T11:34:32;3.17;;;1.50;;
70800;SDS011;59616;52.170;5.386;2022-07-23T11:36:59;3.05;;;1.50;;
70800;SDS011;59616;52.170;5.386;2022-07-23T11:39:28;3.92;;;1.58;;
70800;SDS011;59616;52.170;5.386;2022-07-23T11:41:56;5.22;;;1.65;;
70800;SDS011;59616;52.170;5.386;2022-07-23T11:44:23;4.82;;;1.60;;
70800;SDS011;59616;52.170;5.386;2022-07-23T11:46:58;4.72;;;1.85;;
70800;SDS011;59616;52.170;5.386;2022-07-23T11:49:27;4.35;;;1.67;;
70800;SDS011;59616;52.170;5.386;2022-07-23T11:52:11;5.43;;;1.55;;
70800;SDS011;59616;52.170;5.386;2022-07-23T11:54:55;3.28;;;1.40;;
70800;SDS011;59616;52.170;5.386;2022-07-23T11:57:30;4.38;;;1.73;;
70800;SDS011;59616;52.170;5.386;2022-07-23T12:00:00;3.38;;;1.48;;
70800;SDS011;59616;52.170;5.386;2022-07-23T12:02:38;4.90;;;1.73;;
70800;SDS011;59616;52.170;5.386;2022-07-23T12:05:06;3.45;;;1.63;;
70800;SDS011;59616;52.170;5.386;2022-07-23T12:07:36;5.50;;;1.83;;
70800;SDS011;59616;52.170;5.386;2022-07-23T12:15:19;4.55;;;1.63;;
70800;SDS011;59616;52.170;5.386;2022-07-23T12:20:19;3.97;;;1.63;;
70800;SDS011;59616;52.170;5.386;2022-07-23T12:22:50;3.20;;;1.70;;
70800;SDS011;59616;52.170;5.386;2022-07-23T12:25:19;3.92;;;1.50;;
70800;SDS011;59616;52.170;5.386;2022-07-23T12:27:58;4.35;;;1.50;;
70800;SDS011;59616;52.170;5.386;2022-07-23T12:30:28;5.13;;;1.65;;
70800;SDS011;59616;52.170;5.386;2022-07-23T12:33:00;4.32;;;1.70;;
70800;SDS011;59616;52.170;5.386;2022-07-23T12:35:32;5.60;;;1.67;;
70800;SDS011;59616;52.170;5.386;2022-07-23T12:38:02;3.20;;;1.30;;
70800;SDS011;59616;52.170;5.386;2022-07-23T12:45:57;4.03;;;1.50;;
70800;SDS011;59616;52.170;5.386;2022-07-23T12:48:37;5.15;;;1.73;;
70800;SDS011;59616;52.170;5.386;2022-07-23T12:53:50;4.32;;;1.80;;
70800;SDS011;59616;52.170;5.386;2022-07-23T12:56:27;4.30;;;1.63;;
70800;SDS011;59616;52.170;5.386;2022-07-23T12:58:57;4.80;;;1.88;;
70800;SDS011;59616;52.170;5.386;2022-07-23T13:01:28;4.43;;;1.80;;
70800;SDS011;59616;52.170;5.386;2022-07-23T13:04:20;6.50;;;1.80;;
70800;SDS011;59616;52.170;5.386;2022-07-23T13:06:49;6.85;;;1.88;;
70800;SDS011;59616;52.170;5.386;2022-07-23T13:09:27;4.03;;;1.73;;
70800;SDS011;59616;52.170;5.386;2022-07-23T13:11:58;3.65;;;1.75;;
70800;SDS011;59616;52.170;5.386;2022-07-23T13:14:26;5.88;;;1.60;;
70800;SDS011;59616;52.170;5.386;2022-07-23T13:16:53;5.35;;;1.75;;
70800;SDS011;59616;52.170;5.386;2022-07-23T13:19:22;3.85;;;1.77;;
70800;SDS011;59616;52.170;5.386;2022-07-23T13:22:09;3.47;;;1.48;;
70800;SDS011;59616;52.170;5.386;2022-07-23T13:24:36;3.85;;;1.60;;
70800;SDS011;59616;52.170;5.386;2022-07-23T13:27:04;4.30;;;1.70;;
70800;SDS011;59616;52.170;5.386;2022-07-23T13:29:36;5.63;;;2.22;;
70800;SDS011;59616;52.170;5.386;2022-07-23T13:32:03;4.68;;;1.85;;
70800;SDS011;59616;52.170;5.386;2022-07-23T13:34:38;4.07;;;1.73;;
70800;SDS011;59616;52.170;5.386;2022-07-23T13:37:07;4.28;;;1.83;;
70800;SDS011;59616;52.170;5.386;2022-07-23T13:39:34;4.53;;;1.80;;
70800;SDS011;59616;52.170;5.386;2022-07-23T13:42:04;6.53;;;2.28;;
70800;SDS011;59616;52.170;5.386;2022-07-23T13:44:33;5.30;;;1.70;;
70800;SDS011;59616;52.170;5.386;2022-07-23T13:47:01;4.00;;;1.50;;
70800;SDS011;59616;52.170;5.386;2022-07-23T13:49:29;3.92;;;1.70;;
70800;SDS011;59616;52.170;5.386;2022-07-23T13:51:56;4.68;;;1.95;;
70800;SDS011;59616;52.170;5.386;2022-07-23T13:54:24;5.35;;;2.15;;
70800;SDS011;59616;52.170;5.386;2022-07-23T13:56:53;6.28;;;1.80;;
70800;SDS011;59616;52.170;5.386;2022-07-23T13:59:20;5.40;;;1.70;;
70800;SDS011;59616;52.170;5.386;2022-07-23T14:01:51;5.05;;;1.50;;
70800;SDS011;59616;52.170;5.386;2022-07-23T14:04:38;3.35;;;1.60;;
70800;SDS011;59616;52.170;5.386;2022-07-23T14:07:07;5.75;;;2.10;;
70800;SDS011;59616;52.170;5.386;2022-07-23T14:09:35;3.40;;;1.55;;
70800;SDS011;59616;52.170;5.386;2022-07-23T14:12:02;3.85;;;1.50;;
70800;SDS011;59616;52.170;5.386;2022-07-23T14:14:30;8.25;;;2.00;;
70800;SDS011;59616;52.170;5.386;2022-07-23T14:16:57;6.53;;;2.13;;
70800;SDS011;59616;52.170;5.386;2022-07-23T14:19:26;5.32;;;1.70;;
70800;SDS011;59616;52.170;5.386;2022-07-23T14:21:56;6.25;;;2.03;;
70800;SDS011;59616;52.170;5.386;2022-07-23T14:24:23;4.45;;;1.90;;
70800;SDS011;59616;52.170;5.386;2022-07-23T14:26:50;4.03;;;1.80;;
70800;SDS011;59616;52.170;5.386;2022-07-23T14:29:16;4.25;;;1.80;;
70800;SDS011;59616;52.170;5.386;2022-07-23T14:31:44;5.60;;;2.10;;
70800;SDS011;59616;52.170;5.386;2022-07-23T14:34:12;4.65;;;1.77;;
70800;SDS011;59616;52.170;5.386;2022-07-23T14:36:39;4.43;;;1.95;;
70800;SDS011;59616;52.170;5.386;2022-07-23T14:39:06;5.90;;;1.70;;
70800;SDS011;59616;52.170;5.386;2022-07-23T14:41:36;4.65;;;1.80;;
70800;SDS011;59616;52.170;5.386;2022-07-23T14:44:03;5.15;;;1.67;;
70800;SDS011;59616;52.170;5.386;2022-07-23T14:46:30;5.32;;;1.88;;
70800;SDS011;59616;52.170;5.386;2022-07-23T14:48:58;5.15;;;1.83;;
70800;SDS011;59616;52.170;5.386;2022-07-23T14:51:26;4.00;;;1.63;;
70800;SDS011;59616;52.170;5.386;2022-07-23T14:53:54;4.88;;;2.00;;
70800;SDS011;59616;52.170;5.386;2022-07-23T14:56:21;4.15;;;1.85;;
70800;SDS011;59616;52.170;5.386;2022-07-23T14:58:48;7.38;;;2.00;;
70800;SDS011;59616;52.170;5.386;2022-07-23T15:01:14;5.15;;;1.95;;
70800;SDS011;59616;52.170;5.386;2022-07-23T15:03:42;5.05;;;2.20;;
70800;SDS011;59616;52.170;5.386;2022-07-23T15:06:09;4.22;;;1.92;;
70800;SDS011;59616;52.170;5.386;2022-07-23T15:08:37;4.18;;;1.90;;
70800;SDS011;59616;52.170;5.386;2022-07-23T15:11:05;5.03;;;2.00;;
70800;SDS011;59616;52.170;5.386;2022-07-23T15:13:35;5.38;;;2.00;;
70800;SDS011;59616;52.170;5.386;2022-07-23T15:16:03;5.88;;;2.10;;
70800;SDS011;59616;52.170;5.386;2022-07-23T15:18:33;4.93;;;1.90;;
70800;SDS011;59616;52.170;5.386;2022-07-23T15:21:01;6.05;;;2.13;;
70800;SDS011;59616;52.170;5.386;2022-07-23T15:23:28;4.60;;;1.98;;
70800;SDS011;59616;52.170;5.386;2022-07-23T15:25:56;5.20;;;2.00;;
70800;SDS011;59616;52.170;5.386;2022-07-23T15:28:24;4.22;;;1.83;;
70800;SDS011;59616;52.170;5.386;2022-07-23T15:30:51;4.35;;;1.90;;
70800;SDS011;59616;52.170;5.386;2022-07-23T15:33:19;4.68;;;1.80;;
70800;SDS011;59616;52.170;5.386;2022-07-23T15:35:47;6.80;;;2.00;;
70800;SDS011;59616;52.170;5.386;2022-07-23T15:38:15;5.30;;;2.00;;
70800;SDS011;59616;52.170;5.386;2022-07-23T15:40:50;4.70;;;2.05;;
70800;SDS011;59616;52.170;5.386;2022-07-23T15:43:17;6.43;;;2.15;;
70800;SDS011;59616;52.170;5.386;2022-07-23T15:45:45;6.45;;;2.17;;
70800;SDS011;59616;52.170;5.386;2022-07-23T15:48:12;4.00;;;1.98;;
70800;SDS011;59616;52.170;5.386;2022-07-23T15:50:39;4.80;;;1.75;;
70800;SDS011;59616;52.170;5.386;2022-07-23T15:53:11;4.35;;;1.70;;
70800;SDS011;59616;52.170;5.386;2022-07-23T15:55:41;4.45;;;1.90;;
70800;SDS011;59616;52.170;5.386;2022-07-23T15:58:11;4.70;;;1.92;;
70800;SDS011;59616;52.170;5.386;2022-07-23T16:00:39;4.78;;;1.80;;